Time;durP1;ratioP1;P1;durP2;ratioP2;P2;SDS_P1;SDS_P2;PMS_P1;PMS_P2;Temp;Humidity;BMP_temperature;BMP_pressure;BME280_temperature;BME280_humidity;BME280_pressure;Samples;Min_cycle;Max_cycle;Signal;HPM_P1;HPM_P2
2022/12/18 00:00:03;;;;;;;;;;;;;;;-8.20;71.95;99264.25;5045109;28;19928;-60
2022/12/18 00:02:40;;;;;;;;;;;;;;;-8.09;71.33;99269.25;5051986;28;19960;-57
2022/12/18 00:05:09;;;;;;;;;;;;;;;-8.19;71.31;99273.81;5049401;28;19928;-57
2022/12/18 00:07:40;;;;;;;;;;;;;;;-8.27;70.84;99281.66;5050705;28;19955;-57
2022/12/18 00:10:09;;;;;;;;;;;;;;;-8.33;70.45;99277.03;5048501;28;19925;-56
2022/12/18 00:12:38;;;;;;;;;;;;;;;-8.46;71.03;99274.84;5049097;28;19979;-56
2022/12/18 00:15:06;;;;;;;;;;;;;;;-8.46;70.65;99270.41;5044461;28;19925;-57
2022/12/18 00:17:34;;;;;;;;;;;;;;;-8.29;70.52;99267.81;5046764;28;19929;-57
2022/12/18 00:20:03;;;;;;;;;;;;;;;-8.38;70.10;99266.16;5049661;28;19929;-58
2022/12/18 00:22:31;;;;;;;;;;;;;;;-8.52;71.60;99260.50;5050935;28;20393;-57
2022/12/18 00:25:00;;;;;;;;;;;;;;;-8.33;71.40;99258.56;5050101;28;20278;-57
2022/12/18 00:27:28;;;;;;;;;;;;;;;-8.35;71.64;99256.09;5050019;28;20390;-56
2022/12/18 00:29:59;;;;;;;;;;;;;;;-8.35;71.43;99260.56;5049268;28;19925;-57
2022/12/18 00:32:52;;;;;;;;;;;;;;;-8.26;71.42;99264.84;5039325;28;19979;-57
2022/12/18 00:35:21;;;;;;;;;;;;;;;-8.35;71.53;99260.56;5046753;28;19932;-57
2022/12/18 00:37:49;;;;;;;;;;;;;;;-8.32;71.54;99258.41;5048994;28;20297;-57
2022/12/18 00:43:12;;;;;;;;;;;;;;;-8.43;72.76;99263.16;5050616;28;19925;-57
2022/12/18 00:45:42;;;;;;;;;;;;;;;-8.37;72.12;99267.81;5050070;28;19964;-56
2022/12/18 00:48:11;;;;;;;;;;;;;;;-8.44;72.07;99278.16;5048926;28;19928;-58
2022/12/18 00:51:28;;;;;;;;;;;;;;;-8.42;71.84;99280.63;5043302;28;19936;-57
2022/12/18 00:53:57;;;;;;;;;;;;;;;-8.38;71.28;99277.53;5055166;28;20053;-57
2022/12/18 00:56:25;;;;;;;;;;;;;;;-8.43;71.10;99271.06;5045910;28;19978;-57
2022/12/18 00:58:53;;;;;;;;;;;;;;;-8.49;71.04;99270.72;5050216;28;19929;-63
2022/12/18 01:01:23;;;;;;;;;;;;;;;-8.70;70.55;99262.34;5050075;28;21228;-57
2022/12/18 01:03:51;;;;;;;;;;;;;;;-8.64;71.69;99260.91;5055905;28;19970;-57
2022/12/18 01:06:20;;;;;;;;;;;;;;;-8.65;71.36;99265.34;5039868;28;19932;-60
2022/12/18 01:08:50;;;;;;;;;;;;;;;-8.60;70.45;99273.63;5034243;28;20034;-56
2022/12/18 01:11:19;;;;;;;;;;;;;;;-8.69;70.37;99284.25;5050138;28;19933;-57
2022/12/18 01:13:49;;;;;;;;;;;;;;;-8.73;69.82;99291.66;5045403;28;19929;-57
2022/12/18 01:16:17;;;;;;;;;;;;;;;-8.55;70.09;99291.59;5048985;28;19925;-57
2022/12/18 01:18:52;;;;;;;;;;;;;;;-8.84;69.73;99292.72;5049776;28;20008;-61
2022/12/18 01:21:21;;;;;;;;;;;;;;;-8.95;70.42;99300.03;5047147;28;19928;-57
2022/12/18 01:23:51;;;;;;;;;;;;;;;-8.61;69.46;99294.84;5043268;28;19933;-57
2022/12/18 01:26:19;;;;;;;;;;;;;;;-8.74;70.56;99303.97;5049184;28;19975;-57
2022/12/18 01:28:48;;;;;;;;;;;;;;;-8.73;70.23;99289.03;5046984;28;19924;-56
2022/12/18 01:31:17;;;;;;;;;;;;;;;-8.65;70.84;99307.50;5047288;28;19925;-57
2022/12/18 01:33:52;;;;;;;;;;;;;;;-8.75;70.05;99302.31;5045994;28;19933;-57
2022/12/18 01:45:06;;;;;;;;;;;;;;;-8.76;70.80;99313.03;5041053;28;19933;-56
2022/12/18 01:47:38;;;;;;;;;;;;;;;-8.78;71.37;99312.34;5051751;28;19925;-57
2022/12/18 01:50:09;;;;;;;;;;;;;;;-8.86;71.10;99313.09;5061687;28;20023;-57
2022/12/18 01:52:41;;;;;;;;;;;;;;;-8.86;71.29;99309.66;5051957;28;19931;-56
2022/12/18 01:55:09;;;;;;;;;;;;;;;-8.69;71.01;99321.94;5048173;28;19924;-56
2022/12/18 01:57:37;;;;;;;;;;;;;;;-8.54;70.53;99330.13;5055265;28;19994;-57
2022/12/18 02:00:06;;;;;;;;;;;;;;;-8.70;69.85;99322.94;5054538;28;19948;-56
2022/12/18 02:02:40;;;;;;;;;;;;;;;-8.83;70.24;99330.44;5073737;28;19928;-56
2022/12/18 02:05:09;;;;;;;;;;;;;;;-8.85;71.23;99319.19;5053784;28;20321;-56
2022/12/18 02:07:41;;;;;;;;;;;;;;;-8.81;71.57;99312.66;5055589;28;20313;-56
2022/12/18 02:10:12;;;;;;;;;;;;;;;-8.84;71.34;99312.94;5052655;28;19925;-57
2022/12/18 02:12:43;;;;;;;;;;;;;;;-8.80;71.32;99324.84;5055163;28;19932;-57
2022/12/18 02:15:12;;;;;;;;;;;;;;;-8.92;71.85;99326.88;5054424;28;19928;-57
2022/12/18 02:17:42;;;;;;;;;;;;;;;-8.86;71.83;99322.81;5068352;28;19924;-57
2022/12/18 02:20:15;;;;;;;;;;;;;;;-8.81;71.74;99331.91;5072016;28;19991;-56
2022/12/18 02:22:45;;;;;;;;;;;;;;;-8.88;72.36;99328.25;5073968;28;19925;-56
2022/12/18 02:25:20;;;;;;;;;;;;;;;-8.87;72.72;99331.69;5069543;28;19928;-58
2022/12/18 02:27:50;;;;;;;;;;;;;;;-8.65;72.06;99333.03;5061643;28;19925;-57
2022/12/18 02:33:10;;;;;;;;;;;;;;;-8.74;71.71;99318.94;5069940;28;19924;-61
2022/12/18 02:35:39;;;;;;;;;;;;;;;-8.62;72.64;99323.00;5054419;28;19928;-56
2022/12/18 02:38:08;;;;;;;;;;;;;;;-8.50;72.12;99327.03;5054805;28;19925;-57
2022/12/18 02:40:38;;;;;;;;;;;;;;;-8.58;72.09;99319.06;5054965;28;19924;-56
2022/12/18 02:43:09;;;;;;;;;;;;;;;-8.58;72.54;99319.06;5053120;28;19951;-56
2022/12/18 02:45:46;;;;;;;;;;;;;;;-8.56;72.58;99319.75;5051671;28;19924;-56
2022/12/18 02:51:09;;;;;;;;;;;;;;;-8.49;72.84;99349.78;5065514;28;19951;-61
2022/12/18 02:53:39;;;;;;;;;;;;;;;-8.53;73.16;99352.84;5054996;28;19924;-57
2022/12/18 02:56:11;;;;;;;;;;;;;;;-8.57;72.64;99356.81;5070970;28;19925;-58
2022/12/18 02:58:43;;;;;;;;;;;;;;;-8.46;72.86;99360.00;5053110;28;20019;-57
2022/12/18 03:01:20;;;;;;;;;;;;;;;-8.49;72.79;99359.47;5052686;28;19936;-57
2022/12/18 03:03:50;;;;;;;;;;;;;;;-8.53;72.81;99352.84;5050245;28;20267;-56
2022/12/18 03:06:21;;;;;;;;;;;;;;;-8.46;73.74;99353.91;5052691;28;19954;-57
2022/12/18 03:09:15;;;;;;;;;;;;;;;-8.45;72.93;99345.84;5066882;28;19936;-56
2022/12/18 03:14:33;;;;;;;;;;;;;;;-8.54;72.81;99330.97;5051281;28;20313;-56
2022/12/18 03:17:03;;;;;;;;;;;;;;;-8.36;73.33;99327.44;5053452;28;19924;-56
2022/12/18 03:19:33;;;;;;;;;;;;;;;-8.32;72.49;99319.03;5053852;28;20300;-57
2022/12/18 03:22:03;;;;;;;;;;;;;;;-8.41;72.80;99319.16;5045258;28;19930;-56
2022/12/18 03:24:40;;;;;;;;;;;;;;;-8.41;73.62;99322.66;5052986;28;19925;-57
2022/12/18 03:27:09;;;;;;;;;;;;;;;-8.31;73.33;99325.13;5052950;28;20293;-58
2022/12/18 03:29:39;;;;;;;;;;;;;;;-8.42;74.11;99334.16;5053304;28;20439;-56
2022/12/18 03:32:10;;;;;;;;;;;;;;;-8.30;73.81;99337.34;5051049;28;19925;-56
2022/12/18 03:34:39;;;;;;;;;;;;;;;-8.24;73.39;99337.56;5044637;28;19932;-56
2022/12/18 03:37:10;;;;;;;;;;;;;;;-8.12;73.61;99335.47;5052218;28;19932;-56
2022/12/18 03:39:38;;;;;;;;;;;;;;;-8.08;74.47;99349.16;5072191;28;19963;-56
2022/12/18 03:45:10;;;;;;;;;;;;;;;-7.94;74.27;99352.03;5063840;28;19938;-57
2022/12/18 03:47:40;;;;;;;;;;;;;;;-7.85;74.54;99344.16;5040319;28;19940;-57
2022/12/18 03:50:11;;;;;;;;;;;;;;;-7.77;73.99;99349.50;5041900;28;19925;-57
2022/12/18 03:52:43;;;;;;;;;;;;;;;-7.78;74.21;99342.53;5034299;28;19932;-58
2022/12/18 03:55:11;;;;;;;;;;;;;;;-7.56;74.09;99339.34;5044789;28;20332;-57
2022/12/18 03:57:41;;;;;;;;;;;;;;;-7.45;74.14;99346.13;5049883;28;19925;-57
2022/12/18 04:00:11;;;;;;;;;;;;;;;-7.35;75.17;99338.06;5065192;28;19964;-57
2022/12/18 04:02:55;;;;;;;;;;;;;;;-7.32;74.89;99346.47;5049821;28;19924;-57
2022/12/18 04:05:31;;;;;;;;;;;;;;;-7.20;74.34;99354.91;5047299;28;19925;-56
2022/12/18 04:08:01;;;;;;;;;;;;;;;-7.31;73.92;99360.50;5049159;28;19925;-57
2022/12/18 04:10:30;;;;;;;;;;;;;;;-7.25;74.76;99365.97;5037514;28;19961;-57
2022/12/18 04:13:00;;;;;;;;;;;;;;;-7.22;74.51;99367.47;5048649;28;19924;-57
2022/12/18 04:15:31;;;;;;;;;;;;;;;-7.37;74.25;99364.63;5050514;28;19986;-56
2022/12/18 04:17:59;;;;;;;;;;;;;;;-7.41;74.47;99364.09;5047677;28;19964;-57
2022/12/18 04:20:36;;;;;;;;;;;;;;;-7.30;73.61;99362.16;5044622;28;19956;-58
2022/12/18 04:23:04;;;;;;;;;;;;;;;-7.38;73.71;99357.69;5048106;28;19974;-58
2022/12/18 04:25:32;;;;;;;;;;;;;;;-7.24;74.10;99361.53;5042438;28;19974;-58
2022/12/18 04:28:11;;;;;;;;;;;;;;;-7.35;73.54;99359.16;5045964;28;19963;-58
2022/12/18 04:30:41;;;;;;;;;;;;;;;-7.50;72.93;99362.44;5048904;28;19925;-57
2022/12/18 04:33:10;;;;;;;;;;;;;;;-7.50;72.92;99365.09;5051620;28;20003;-57
2022/12/18 04:35:39;;;;;;;;;;;;;;;-7.55;72.68;99382.38;5048824;28;19948;-57
2022/12/18 04:38:09;;;;;;;;;;;;;;;-7.45;72.20;99376.00;5056319;28;20262;-56
2022/12/18 04:40:38;;;;;;;;;;;;;;;-7.42;72.81;99374.84;5049250;28;19975;-56
2022/12/18 04:43:12;;;;;;;;;;;;;;;-7.48;72.82;99371.03;5046803;28;20301;-57
2022/12/18 04:45:42;;;;;;;;;;;;;;;-7.43;72.20;99381.94;5050722;28;20433;-59
2022/12/18 04:48:11;;;;;;;;;;;;;;;-7.44;72.50;99375.00;5049668;28;19932;-57
2022/12/18 04:51:04;;;;;;;;;;;;;;;-7.52;72.69;99372.31;5061870;28;19936;-57
2022/12/18 04:53:33;;;;;;;;;;;;;;;-7.48;72.02;99373.66;5042611;28;19925;-56
2022/12/18 04:56:06;;;;;;;;;;;;;;;-7.57;72.38;99371.97;5069348;28;19924;-57
2022/12/18 04:58:34;;;;;;;;;;;;;;;-7.45;71.99;99375.16;5069911;28;19928;-57
2022/12/18 05:01:03;;;;;;;;;;;;;;;-7.34;72.34;99368.78;5063368;28;19928;-57
2022/12/18 05:03:56;;;;;;;;;;;;;;;-7.60;72.22;99364.38;5071152;28;19924;-64
2022/12/18 05:06:49;;;;;;;;;;;;;;;-7.40;72.95;99364.97;5064660;28;19924;-62
2022/12/18 05:09:18;;;;;;;;;;;;;;;-7.45;72.02;99365.44;5051892;28;20019;-62
2022/12/18 05:11:46;;;;;;;;;;;;;;;-7.41;72.32;99369.38;5068272;28;19924;-56
2022/12/18 05:14:15;;;;;;;;;;;;;;;-7.42;72.54;99364.28;5065394;28;19940;-56
2022/12/18 05:16:44;;;;;;;;;;;;;;;-7.25;71.94;99362.50;5071972;28;19958;-56
2022/12/18 05:19:12;;;;;;;;;;;;;;;-7.54;72.29;99366.38;5073143;28;19925;-57
2022/12/18 05:21:40;;;;;;;;;;;;;;;-7.50;72.40;99362.44;5074427;28;19970;-56
2022/12/18 05:24:08;;;;;;;;;;;;;;;-7.52;73.27;99364.41;5064133;28;19925;-57
2022/12/18 05:26:38;;;;;;;;;;;;;;;-7.31;73.35;99366.63;5073497;28;20309;-56
2022/12/18 05:32:02;;;;;;;;;;;;;;;-7.12;72.22;99382.19;5069769;28;19925;-57
2022/12/18 05:34:31;;;;;;;;;;;;;;;-7.25;72.09;99380.97;5072762;28;19928;-57
2022/12/18 05:37:24;;;;;;;;;;;;;;;-7.06;72.74;99382.53;5055164;28;20378;-57
2022/12/18 05:39:52;;;;;;;;;;;;;;;-6.97;72.52;99374.47;5074575;28;19931;-59
2022/12/18 05:42:20;;;;;;;;;;;;;;;-7.03;72.41;99377.75;5070033;28;20271;-59
2022/12/18 05:44:48;;;;;;;;;;;;;;;-7.18;73.22;99374.91;5073421;28;20002;-56
2022/12/18 05:47:20;;;;;;;;;;;;;;;-7.14;73.06;99372.75;5072114;28;19972;-57
2022/12/18 05:50:13;;;;;;;;;;;;;;;-6.99;72.41;99376.41;5072683;28;19931;-57
2022/12/18 05:52:41;;;;;;;;;;;;;;;-6.93;72.98;99370.47;5065385;28;19925;-58
2022/12/18 05:55:09;;;;;;;;;;;;;;;-6.87;72.65;99374.28;5073606;28;19925;-56
2022/12/18 05:57:37;;;;;;;;;;;;;;;-6.82;72.30;99379.06;5072576;28;19925;-57
2022/12/18 06:00:06;;;;;;;;;;;;;;;-6.95;72.57;99382.22;5072117;28;19928;-57
2022/12/18 06:02:40;;;;;;;;;;;;;;;-6.71;72.67;99378.75;5073846;28;19924;-57
2022/12/18 06:05:08;;;;;;;;;;;;;;;-6.72;72.36;99387.66;5057029;28;19925;-56
2022/12/18 06:07:37;;;;;;;;;;;;;;;-6.81;72.28;99393.97;5068959;28;19925;-57
2022/12/18 06:10:06;;;;;;;;;;;;;;;-6.77;72.55;99387.34;5063653;28;20030;-56
2022/12/18 06:12:34;;;;;;;;;;;;;;;-6.72;72.64;99393.78;5074180;28;19929;-57
2022/12/18 06:15:02;;;;;;;;;;;;;;;-6.63;72.81;99394.63;5073390;28;20391;-57
2022/12/18 06:17:31;;;;;;;;;;;;;;;-6.76;72.11;99405.69;5065737;28;19925;-57
2022/12/18 06:20:01;;;;;;;;;;;;;;;-6.83;73.92;99406.50;5067358;28;19924;-57
2022/12/18 06:22:29;;;;;;;;;;;;;;;-6.82;73.72;99395.75;5066022;28;20270;-57
2022/12/18 06:24:57;;;;;;;;;;;;;;;-6.64;73.14;99406.19;5066528;28;19932;-56
2022/12/18 06:27:25;;;;;;;;;;;;;;;-6.47;73.82;99385.88;5072470;28;19931;-57
2022/12/18 06:29:53;;;;;;;;;;;;;;;-6.64;73.72;99399.09;5071155;28;19925;-56
2022/12/18 06:32:21;;;;;;;;;;;;;;;-6.60;73.96;99399.59;5067271;28;19989;-56
2022/12/18 06:34:50;;;;;;;;;;;;;;;-6.50;73.96;99387.00;5069621;28;19928;-62
2022/12/18 06:37:19;;;;;;;;;;;;;;;-6.48;73.90;99392.97;5067036;28;20447;-58
2022/12/18 06:39:47;;;;;;;;;;;;;;;-6.45;72.87;99400.56;5070796;28;19932;-57
2022/12/18 06:42:17;;;;;;;;;;;;;;;-6.51;73.45;99413.63;5067577;28;19934;-58
2022/12/18 06:44:48;;;;;;;;;;;;;;;-6.52;73.55;99415.44;5070510;28;19924;-56
2022/12/18 06:50:09;;;;;;;;;;;;;;;-6.58;73.64;99408.19;5063298;28;19929;-56
2022/12/18 06:52:40;;;;;;;;;;;;;;;-6.48;74.12;99418.59;5053250;28;20393;-57
2022/12/18 06:55:11;;;;;;;;;;;;;;;-6.35;74.12;99409.16;5041470;28;19925;-57
2022/12/18 06:57:39;;;;;;;;;;;;;;;-6.38;73.61;99409.50;5066716;28;20388;-56
2022/12/18 07:00:07;;;;;;;;;;;;;;;-6.22;73.21;99411.31;5067310;28;20361;-57
2022/12/18 07:02:36;;;;;;;;;;;;;;;-6.48;73.97;99415.94;5051297;28;19932;-56
2022/12/18 07:05:04;;;;;;;;;;;;;;;-6.44;73.95;99415.47;5069673;28;19928;-60
2022/12/18 07:07:37;;;;;;;;;;;;;;;-6.40;74.24;99422.03;5069644;28;20418;-56
2022/12/18 07:10:07;;;;;;;;;;;;;;;-6.28;74.06;99416.41;5063935;28;19967;-57
2022/12/18 07:12:35;;;;;;;;;;;;;;;-6.40;74.27;99423.88;5068543;28;20425;-57
2022/12/18 07:15:04;;;;;;;;;;;;;;;-6.27;73.83;99418.91;5061775;28;19925;-57
2022/12/18 07:17:32;;;;;;;;;;;;;;;-6.11;73.49;99413.63;5044902;28;19924;-56
2022/12/18 07:20:00;;;;;;;;;;;;;;;-6.08;73.54;99407.97;5068938;28;19924;-57
2022/12/18 07:22:28;;;;;;;;;;;;;;;-6.07;73.29;99403.53;5066030;28;19925;-57
2022/12/18 07:24:58;;;;;;;;;;;;;;;-6.22;73.94;99399.91;5065493;28;19932;-58
2022/12/18 07:27:28;;;;;;;;;;;;;;;-6.03;73.81;99404.81;5050937;28;19925;-57
2022/12/18 07:29:57;;;;;;;;;;;;;;;-5.97;73.67;99408.63;5069519;28;19935;-59
2022/12/18 07:32:50;;;;;;;;;;;;;;;-5.92;73.77;99404.47;5062909;28;20400;-59
2022/12/18 07:35:19;;;;;;;;;;;;;;;-5.82;73.63;99401.59;5061571;28;20007;-58
2022/12/18 07:37:52;;;;;;;;;;;;;;;-5.83;73.87;99411.38;5049444;28;19924;-58
2022/12/18 07:43:14;;;;;;;;;;;;;;;-5.85;74.24;99426.59;5066498;28;19935;-59
2022/12/18 07:45:45;;;;;;;;;;;;;;;-5.60;73.79;99421.22;5064148;28;19932;-58
2022/12/18 07:51:07;;;;;;;;;;;;;;;-5.64;74.45;99446.41;5059291;28;19936;-59
2022/12/18 07:53:36;;;;;;;;;;;;;;;-5.50;74.84;99445.69;5045948;28;19929;-59
2022/12/18 07:56:05;;;;;;;;;;;;;;;-5.44;74.65;99450.31;5046505;28;19928;-59
2022/12/18 07:58:55;;;;;;;;;;;;;;;-5.33;74.23;99447.28;5046410;28;19933;-61
2022/12/18 08:01:23;;;;;;;;;;;;;;;-5.18;74.45;99441.25;5048439;28;19932;-59
2022/12/18 08:03:51;;;;;;;;;;;;;;;-5.07;73.97;99439.06;5048308;28;19928;-58
2022/12/18 08:06:19;;;;;;;;;;;;;;;-4.91;73.64;99440.78;5041135;28;19940;-60
2022/12/18 08:09:16;;;;;;;;;;;;;;;-4.88;74.12;99439.63;5048498;28;20026;-59
2022/12/18 08:11:44;;;;;;;;;;;;;;;-4.97;74.05;99438.84;5044561;28;19931;-59
2022/12/18 08:14:14;;;;;;;;;;;;;;;-5.16;75.57;99452.53;5041727;28;19979;-59
2022/12/18 08:17:08;;;;;;;;;;;;;;;-4.95;74.98;99441.31;5042249;28;19929;-61
2022/12/18 08:19:36;;;;;;;;;;;;;;;-4.72;73.92;99450.13;5054995;28;20012;-59
2022/12/18 08:22:05;;;;;;;;;;;;;;;-4.89;74.49;99457.38;5033779;28;19932;-61
2022/12/18 08:24:33;;;;;;;;;;;;;;;-4.72;74.81;99454.63;5041832;28;20298;-59
2022/12/18 08:27:01;;;;;;;;;;;;;;;-4.70;74.91;99455.25;5039004;28;20374;-59
2022/12/18 08:29:52;;;;;;;;;;;;;;;-4.63;74.65;99450.91;5042907;28;20355;-60
2022/12/18 08:32:20;;;;;;;;;;;;;;;-4.54;74.84;99449.84;5045184;28;20016;-59
2022/12/18 08:35:14;;;;;;;;;;;;;;;-4.44;74.22;99455.75;5047316;28;19929;-60
2022/12/18 08:37:45;;;;;;;;;;;;;;;-4.40;74.37;99457.06;5046212;28;20324;-59
2022/12/18 08:40:13;;;;;;;;;;;;;;;-4.38;74.59;99457.69;5044822;28;19929;-62
2022/12/18 08:45:54;;;;;;;;;;;;;;;-4.16;74.17;99453.34;5043296;28;19951;-59
2022/12/18 08:48:26;;;;;;;;;;;;;;;-3.97;74.26;99458.19;5042601;28;20023;-59
2022/12/18 08:50:55;;;;;;;;;;;;;;;-3.93;74.03;99458.66;5051012;28;19929;-60
2022/12/18 08:53:31;;;;;;;;;;;;;;;-3.76;73.96;99452.19;5057065;28;19925;-59
2022/12/18 08:56:02;;;;;;;;;;;;;;;-3.70;73.93;99454.09;5056754;28;19924;-59
2022/12/18 08:58:30;;;;;;;;;;;;;;;-3.63;73.97;99450.72;5050966;28;19931;-62
2022/12/18 09:01:02;;;;;;;;;;;;;;;-3.66;74.38;99451.91;5060510;28;19939;-61
2022/12/18 09:03:30;;;;;;;;;;;;;;;-3.49;73.60;99444.59;5058269;28;19978;-59
2022/12/18 09:05:59;;;;;;;;;;;;;;;-3.27;72.76;99443.66;5060379;28;19982;-60
2022/12/18 09:08:27;;;;;;;;;;;;;;;-3.32;72.96;99454.03;5061703;28;20003;-61
2022/12/18 09:13:49;;;;;;;;;;;;;;;-3.27;73.06;99453.47;5069626;28;20385;-61
2022/12/18 09:16:20;;;;;;;;;;;;;;;-3.27;72.44;99437.53;5051920;28;20020;-61
2022/12/18 09:18:59;;;;;;;;;;;;;;;-3.38;72.40;99443.31;5071546;28;19929;-60
2022/12/18 09:21:28;;;;;;;;;;;;;;;-3.28;72.42;99447.34;5042892;28;19925;-60
2022/12/18 09:23:56;;;;;;;;;;;;;;;-3.43;72.20;99451.81;5069588;28;19924;-60
2022/12/18 09:26:24;;;;;;;;;;;;;;;-3.26;72.62;99450.63;5069080;28;19932;-60
2022/12/18 09:28:53;;;;;;;;;;;;;;;-3.33;72.42;99455.03;5070658;28;20403;-60
2022/12/18 09:31:24;;;;;;;;;;;;;;;-3.16;72.08;99445.84;5060893;28;19925;-61
2022/12/18 09:33:52;;;;;;;;;;;;;;;-3.07;71.64;99443.09;5061708;28;19959;-60
2022/12/18 09:39:13;;;;;;;;;;;;;;;-2.98;70.70;99436.69;5057857;28;19925;-61
2022/12/18 09:42:06;;;;;;;;;;;;;;;-2.93;70.74;99429.78;5059244;28;19940;-60
2022/12/18 09:45:01;;;;;;;;;;;;;;;-2.75;70.63;99426.69;5057761;28;19929;-60
2022/12/18 09:47:36;;;;;;;;;;;;;;;-2.82;70.48;99424.97;5061550;28;19970;-60
2022/12/18 09:50:05;;;;;;;;;;;;;;;-2.64;70.04;99422.72;5067689;28;19933;-60
2022/12/18 09:52:38;;;;;;;;;;;;;;;-2.80;69.97;99413.13;5061567;28;19928;-60
2022/12/18 09:55:07;;;;;;;;;;;;;;;-2.83;70.01;99421.47;5064137;28;19968;-60
2022/12/18 09:57:37;;;;;;;;;;;;;;;-2.79;70.12;99421.94;5067312;28;19928;-60
2022/12/18 10:00:08;;;;;;;;;;;;;;;-2.84;69.90;99414.53;5068077;28;19938;-60
2022/12/18 10:02:39;;;;;;;;;;;;;;;-2.71;69.83;99417.34;5058735;28;19925;-60
2022/12/18 10:05:08;;;;;;;;;;;;;;;-2.51;69.51;99416.69;5072000;28;19937;-61
2022/12/18 10:07:44;;;;;;;;;;;;;;;-2.45;68.96;99424.78;5051789;28;19924;-60
2022/12/18 10:10:15;;;;;;;;;;;;;;;-2.72;69.35;99421.00;5065400;28;20376;-59
2022/12/18 10:12:45;;;;;;;;;;;;;;;-2.68;69.79;99422.25;5057216;28;19924;-60
2022/12/18 10:15:14;;;;;;;;;;;;;;;-2.30;68.90;99414.03;5069450;28;19924;-59
2022/12/18 10:17:46;;;;;;;;;;;;;;;-2.20;67.91;99403.88;5065456;28;19925;-60
2022/12/18 10:20:15;;;;;;;;;;;;;;;-2.16;67.21;99401.66;5056630;28;19928;-60
2022/12/18 10:22:45;;;;;;;;;;;;;;;-2.07;67.26;99399.69;5069332;28;19924;-60
2022/12/18 10:25:16;;;;;;;;;;;;;;;-2.09;66.79;99391.06;5061732;28;19928;-60
2022/12/18 10:27:44;;;;;;;;;;;;;;;-2.08;67.15;99390.84;5064360;28;20293;-60
2022/12/18 10:30:14;;;;;;;;;;;;;;;-2.01;67.13;99388.25;5059965;28;20301;-60
2022/12/18 10:32:44;;;;;;;;;;;;;;;-1.93;66.73;99390.75;5057827;28;20014;-60
2022/12/18 10:35:15;;;;;;;;;;;;;;;-1.93;66.18;99386.25;5063205;28;19931;-59
2022/12/18 10:37:59;;;;;;;;;;;;;;;-2.20;66.30;99387.91;5063997;28;19925;-60
2022/12/18 10:40:30;;;;;;;;;;;;;;;-2.14;66.14;99389.78;5064817;28;19929;-62
2022/12/18 10:43:05;;;;;;;;;;;;;;;-1.97;66.32;99384.19;5056767;28;19932;-59
2022/12/18 10:45:33;;;;;;;;;;;;;;;-1.98;66.31;99398.50;5060788;28;19943;-60
2022/12/18 10:48:04;;;;;;;;;;;;;;;-2.09;65.76;99399.03;5066494;28;20407;-60
2022/12/18 10:50:34;;;;;;;;;;;;;;;-2.08;66.37;99403.34;5041704;28;19931;-60
2022/12/18 10:53:23;;;;;;;;;;;;;;;-1.97;65.97;99403.66;5042993;28;20416;-59
2022/12/18 10:56:16;;;;;;;;;;;;;;;-2.22;65.90;99405.91;5043031;28;19928;-60
2022/12/18 10:58:44;;;;;;;;;;;;;;;-2.01;65.97;99407.72;5046182;28;20293;-60
2022/12/18 11:01:14;;;;;;;;;;;;;;;-2.07;66.26;99407.69;5039112;28;20369;-60
2022/12/18 11:03:44;;;;;;;;;;;;;;;-2.22;66.08;99407.75;5039987;28;19925;-60
2022/12/18 11:06:13;;;;;;;;;;;;;;;-2.26;66.70;99422.47;5043420;28;19972;-60
2022/12/18 11:08:41;;;;;;;;;;;;;;;-2.33;66.85;99425.06;5041565;28;19932;-60
2022/12/18 11:11:20;;;;;;;;;;;;;;;-2.42;67.52;99420.88;5037899;28;19928;-60
2022/12/18 11:13:58;;;;;;;;;;;;;;;-2.43;67.74;99424.56;5044287;28;19925;-60
2022/12/18 11:16:27;;;;;;;;;;;;;;;-2.63;67.56;99413.72;5036679;28;19940;-60
2022/12/18 11:19:14;;;;;;;;;;;;;;;-2.69;68.28;99409.16;5038421;28;19929;-60
2022/12/18 11:21:43;;;;;;;;;;;;;;;-2.60;68.16;99399.22;5039437;28;19925;-60
2022/12/18 11:24:16;;;;;;;;;;;;;;;-2.76;68.50;99389.66;5038076;28;20417;-60
2022/12/18 11:26:45;;;;;;;;;;;;;;;-2.48;68.61;99393.19;5043444;28;19925;-59
2022/12/18 11:29:38;;;;;;;;;;;;;;;-2.44;68.09;99385.66;5039072;28;19932;-59
2022/12/18 11:32:24;;;;;;;;;;;;;;;-2.36;67.92;99388.19;5037898;28;20020;-59
2022/12/18 11:34:55;;;;;;;;;;;;;;;-2.21;67.96;99386.25;5042566;28;20326;-61
2022/12/18 11:37:26;;;;;;;;;;;;;;;-2.19;67.54;99388.72;5041868;28;20027;-62
2022/12/18 11:39:56;;;;;;;;;;;;;;;-2.29;67.23;99373.09;5054391;28;19951;-61
2022/12/18 11:42:25;;;;;;;;;;;;;;;-2.01;66.96;99378.44;5041676;28;20275;-60
2022/12/18 11:44:56;;;;;;;;;;;;;;;-1.93;66.60;99382.78;5041925;28;19925;-60
2022/12/18 11:47:49;;;;;;;;;;;;;;;-1.85;66.49;99377.31;5038589;28;19924;-60
2022/12/18 11:50:20;;;;;;;;;;;;;;;-2.06;67.35;99369.38;5038154;28;19972;-59
2022/12/18 11:52:48;;;;;;;;;;;;;;;-2.10;67.49;99371.59;5034154;28;20505;-60
2022/12/18 11:55:24;;;;;;;;;;;;;;;-1.94;67.30;99357.16;5036868;28;20435;-60
2022/12/18 11:57:54;;;;;;;;;;;;;;;-1.77;66.96;99350.50;5040786;28;19929;-59
2022/12/18 12:00:23;;;;;;;;;;;;;;;-1.60;65.70;99345.66;5037356;28;19964;-59
2022/12/18 12:03:08;;;;;;;;;;;;;;;-1.81;66.23;99343.94;5039668;28;19933;-60
2022/12/18 12:05:45;;;;;;;;;;;;;;;-1.62;66.78;99343.22;5037429;28;20448;-60
2022/12/18 12:08:16;;;;;;;;;;;;;;;-1.74;66.86;99344.78;5032809;28;19972;-60
2022/12/18 12:10:48;;;;;;;;;;;;;;;-1.66;66.09;99347.28;5035673;28;19925;-61
2022/12/18 12:13:29;;;;;;;;;;;;;;;-1.86;66.47;99349.03;5036611;28;19925;-60
2022/12/18 12:16:01;;;;;;;;;;;;;;;-1.88;66.18;99353.72;5044646;28;19925;-59
2022/12/18 12:18:34;;;;;;;;;;;;;;;-1.79;66.40;99351.72;5040255;28;19925;-60
2022/12/18 12:21:06;;;;;;;;;;;;;;;-2.00;66.78;99344.63;5048817;28;19935;-59
2022/12/18 12:23:38;;;;;;;;;;;;;;;-1.76;66.91;99338.00;5041340;28;20024;-61
2022/12/18 12:26:12;;;;;;;;;;;;;;;-1.83;66.49;99329.97;5045680;28;19933;-61
2022/12/18 12:28:49;;;;;;;;;;;;;;;-1.90;66.67;99332.59;5038821;28;19929;-60
2022/12/18 12:31:20;;;;;;;;;;;;;;;-2.10;67.46;99331.66;5044505;28;19975;-59
2022/12/18 12:33:51;;;;;;;;;;;;;;;-1.81;66.97;99335.94;5042041;28;19932;-60
2022/12/18 12:36:22;;;;;;;;;;;;;;;-1.81;66.74;99335.94;5038902;28;19929;-60
2022/12/18 12:39:14;;;;;;;;;;;;;;;-1.80;66.92;99334.94;5041946;28;20366;-60
2022/12/18 12:44:56;;;;;;;;;;;;;;;-1.69;67.36;99336.22;5036437;28;19925;-60
2022/12/18 12:47:51;;;;;;;;;;;;;;;-1.73;67.20;99335.78;5036933;28;20154;-59
2022/12/18 12:50:21;;;;;;;;;;;;;;;-1.60;66.93;99327.84;5049364;28;19979;-60
2022/12/18 12:52:52;;;;;;;;;;;;;;;-1.53;66.38;99332.41;5055284;28;19925;-60
2022/12/18 12:55:21;;;;;;;;;;;;;;;-1.43;66.32;99330.19;5061477;28;19931;-63
2022/12/18 12:57:51;;;;;;;;;;;;;;;-1.34;66.24;99328.97;5060879;28;19929;-60
2022/12/18 13:00:20;;;;;;;;;;;;;;;-1.48;65.90;99319.28;5038032;28;20270;-60
2022/12/18 13:02:48;;;;;;;;;;;;;;;-1.52;66.54;99313.53;5054061;28;19933;-60
2022/12/18 13:05:18;;;;;;;;;;;;;;;-1.43;66.99;99308.84;5043995;28;19925;-61
2022/12/18 13:07:52;;;;;;;;;;;;;;;-1.38;66.31;99315.25;5064099;28;20019;-60
2022/12/18 13:10:26;;;;;;;;;;;;;;;-1.38;65.83;99312.56;5033117;28;19925;-60
2022/12/18 13:12:55;;;;;;;;;;;;;;;-1.45;65.98;99322.38;5047953;28;20285;-60
2022/12/18 13:15:24;;;;;;;;;;;;;;;-1.48;66.76;99321.97;5063785;28;20397;-60
2022/12/18 13:18:06;;;;;;;;;;;;;;;-1.56;66.15;99322.94;5041667;28;20027;-61
2022/12/18 13:20:36;;;;;;;;;;;;;;;-1.52;66.20;99310.06;5061128;28;20361;-61
2022/12/18 13:26:36;;;;;;;;;;;;;;;-1.70;66.96;99308.75;5157559;27;20399;-59
2022/12/18 13:29:05;;;;;;;;;;;;;;;-1.59;66.41;99302.03;5124832;27;19934;-59
2022/12/18 13:32:10;;;;;;;;;;;;;;;-1.67;66.64;99305.66;5134017;27;19923;-59
2022/12/18 13:34:43;;;;;;;;;;;;;;;-1.56;67.60;99309.63;5137234;27;19934;-59
2022/12/18 13:37:26;;;;;;;;;;;;;;;-1.45;66.91;99301.03;5118491;27;19924;-59
2022/12/18 13:39:55;;;;;;;;;;;;;;;-1.41;66.26;99309.47;5112827;27;19953;-59
2022/12/18 13:45:42;;;;;;;;;;;;;;;-1.51;66.43;99303.69;5135452;27;19971;-59
2022/12/18 13:48:19;;;;;;;;;;;;;;;-1.42;66.96;99311.31;5133504;27;20391;-59
2022/12/18 13:50:50;;;;;;;;;;;;;;;-1.43;66.50;99311.53;5142377;27;19923;-59
2022/12/18 13:53:20;;;;;;;;;;;;;;;-1.56;66.68;99306.94;5123851;27;20374;-59
2022/12/18 13:55:48;;;;;;;;;;;;;;;-1.50;66.87;99308.00;5145271;27;19930;-59
2022/12/18 13:58:18;;;;;;;;;;;;;;;-1.81;66.92;99295.13;5141838;27;19931;-61
2022/12/18 14:00:46;;;;;;;;;;;;;;;-1.70;66.84;99298.09;5138958;27;19934;-58
2022/12/18 14:03:19;;;;;;;;;;;;;;;-1.73;67.23;99284.34;5142180;27;19924;-59
2022/12/18 14:05:53;;;;;;;;;;;;;;;-1.70;69.41;99287.44;5143928;27;20349;-58